Aérodrome :
LOGIN :

S'inscrire | Disclaimer

   EN    FR    IT 

 










Légende :    VFR   VFR Marginal   IFR   IFR Intensif   IFR Très Intensif
Visi : 
Plafond : 
>= 8 km
>= 3000ft
5 à 8 km
1000 à 3000 ft
1500m à 5 km
500 à 1000 ft
800 à 1500m
200 à 500 ft
< 800m
< 200 ft
Symboles :   Orages  Brouillard  Fortes neiges  Fortes précipitations  Vent > 20 kt
SIGMETs :   Divers  Orages  Givrage  Turbulence  Onde Orograph.  Cendres Volcan.







- Altitude de l'aérodrome : 913 ft
- Voir les cartes d'approche


LFSX - Luxeuil

DERNIER METAR :
  • 162000Z AUTO 23002KT 9999 NCD 22/13 Q1013

METARs EXPIRÉS :
  • 161930Z AUTO 01003KT 9999 NCD 25/11 Q1012
  • 161900Z AUTO 35003KT 9999 NCD 26/11 Q1012
  • 161830Z AUTO 36005KT 9999 NCD 28/10 Q1011
  • 161800Z AUTO 36005KT 330V030 9999 NCD 29/10 Q1011 TEMPO SHRA SCT060TCU
  • 161730Z AUTO 01007KT 330V040 9999 NCD 29/11 Q1011 TEMPO SHRA SCT060TCU

TAF TAF LFSX
Valide du 16 à 15h jusqu'au 17 à 15h UTC


161400Z 1615/1715 VRB03KT CAVOK
TEMPO 1618/1623 SHRA SCT060TCU
Pas de NOTAMs connus pour ce terrain.



MET'MAP, la Météo Aéronautique d'un coup d'oeil ! - Copyright ORBIFLY Décembre 2007 - Disclaimer

ORBIFLY MET'MAP TEAM :

Programmation & Développement : Alexandra Zaïnal
Conception & Développement : Baudouin d'Aumeries
Co-Programmation & Développement : Marc-Olivier Méhu
Soutien technique & logistique : Manuel Goepfert

Contact : metmap@orbifly.com




SOURCES & CREDITS :

   NOAA